Ponderosa, North Carolina
Current Conditions -  °F | °C
As of 1:58 PM on Saturday 20 Dec 2014 (Local Time) from KPOB Reporting Station
Overcast Overcast  
Wind Chill: 34°   Ceiling: 700
Heat Index: 38°   Visibility: 10mi
Dew Point: 35°   Wind: 6mph
Humidity: 89%   Direction: 50°NE
Pressure: 30.24"   Gusts: NA
Location:  35.0916°N, 79.0106°W
Report Text: KPOB 201858Z AUTO 05005KT 10SM OVC007 04/02 A3024 RMK AO2 SLP245 T00360019
Loading
Personal Weather Stations






























Interactive Weather Map New forecast layout! Learn more

10-Day Weather Forecast

Advertisements
Track Severe Weather on mobile